Time;durP1;ratioP1;P1;durP2;ratioP2;P2;SDS_P1;SDS_P2;PMS_P1;PMS_P2;Temp;Humidity;BMP_temperature;BMP_pressure;BME280_temperature;BME280_humidity;BME280_pressure;Samples;Min_cycle;Max_cycle;Signal;HPM_P1;HPM_P2
2023/03/16 00:01:04;;;;;;;0.10;0.10;;;3.40;93.70;;;;;;4965280;28;20193;-76
2023/03/16 00:03:29;;;;;;;0.00;0.00;;;3.40;93.80;;;;;;4963848;28;20289;-76
2023/03/16 00:05:55;;;;;;;0.10;0.10;;;3.40;93.60;;;;;;4964707;28;20232;-76
2023/03/16 00:08:21;;;;;;;0.00;0.00;;;3.40;93.50;;;;;;4964172;28;20186;-76
2023/03/16 00:10:47;;;;;;;0.03;0.03;;;3.30;93.40;;;;;;4947785;28;20190;-76
2023/03/16 00:13:17;;;;;;;0.00;0.00;;;3.30;93.40;;;;;;4964285;28;20178;-76
2023/03/16 00:15:55;;;;;;;0.10;0.10;;;3.30;93.40;;;;;;4964403;28;20200;-76
2023/03/16 00:18:25;;;;;;;0.20;0.20;;;3.30;93.40;;;;;;4964400;28;20577;-75
2023/03/16 00:20:57;;;;;;;0.10;0.10;;;3.30;93.60;;;;;;4963773;28;20214;-75
2023/03/16 00:23:26;;;;;;;0.00;0.00;;;3.20;93.70;;;;;;4963482;28;20186;-76
2023/03/16 00:25:59;;;;;;;0.00;0.00;;;3.20;94.10;;;;;;4962003;28;20907;-76
2023/03/16 00:28:26;;;;;;;0.03;0.03;;;3.20;93.90;;;;;;4960070;28;20269;-76
2023/03/16 00:30:57;;;;;;;0.10;0.10;;;3.20;93.90;;;;;;4961915;28;20186;-76
2023/03/16 00:33:23;;;;;;;0.00;0.00;;;3.20;93.90;;;;;;4944386;28;20194;-76
2023/03/16 00:35:49;;;;;;;0.03;0.03;;;3.10;94.00;;;;;;4964643;28;20198;-76
2023/03/16 00:38:19;;;;;;;0.10;0.10;;;3.10;94.00;;;;;;4961257;28;20739;-76
2023/03/16 00:40:45;;;;;;;0.10;0.10;;;3.10;94.00;;;;;;4964481;28;20182;-76
2023/03/16 00:43:12;;;;;;;0.00;0.00;;;3.10;94.00;;;;;;4960466;28;20256;-76
2023/03/16 00:45:38;;;;;;;0.10;0.10;;;3.00;93.90;;;;;;4961480;28;20218;-76
2023/03/16 00:48:03;;;;;;;0.00;0.00;;;3.00;94.00;;;;;;4963852;28;20249;-76
2023/03/16 00:50:30;;;;;;;0.10;0.10;;;3.00;94.20;;;;;;4962944;28;20622;-76
2023/03/16 00:52:55;;;;;;;0.10;0.10;;;3.00;94.60;;;;;;4963407;28;20322;-76
2023/03/16 00:55:21;;;;;;;0.10;0.10;;;3.00;94.40;;;;;;4965070;28;20226;-76
2023/03/16 00:57:47;;;;;;;0.00;0.00;;;2.90;94.60;;;;;;4963672;28;20213;-76
2023/03/16 01:00:15;;;;;;;0.00;0.00;;;2.90;94.50;;;;;;4962210;28;20186;-76
2023/03/16 01:02:44;;;;;;;0.03;0.03;;;2.90;94.60;;;;;;4959927;28;20260;-76
2023/03/16 01:05:11;;;;;;;0.00;0.00;;;2.90;94.50;;;;;;4960392;28;20280;-76
2023/03/16 01:07:38;;;;;;;0.10;0.10;;;2.80;94.80;;;;;;4960679;28;20765;-76
2023/03/16 01:10:04;;;;;;;0.00;0.00;;;2.80;94.80;;;;;;4962199;28;20233;-76
2023/03/16 01:12:30;;;;;;;0.20;0.20;;;2.80;94.90;;;;;;4961200;28;20216;-76
2023/03/16 01:14:56;;;;;;;0.10;0.10;;;2.80;95.00;;;;;;4964891;28;20191;-76
2023/03/16 01:17:22;;;;;;;0.03;0.03;;;2.70;95.00;;;;;;4964305;28;20606;-76
2023/03/16 01:19:48;;;;;;;0.00;0.00;;;2.70;94.90;;;;;;4962356;28;20727;-75
2023/03/16 01:22:16;;;;;;;0.10;0.10;;;2.70;94.60;;;;;;4945320;28;20252;-75
2023/03/16 01:24:46;;;;;;;0.00;0.00;;;2.70;94.60;;;;;;4964569;28;20218;-76
2023/03/16 01:27:12;;;;;;;0.10;0.10;;;2.70;94.90;;;;;;4964411;28;20187;-75
2023/03/16 01:29:39;;;;;;;0.00;0.00;;;2.70;95.10;;;;;;4965203;28;20185;-75
2023/03/16 01:32:06;;;;;;;0.20;0.20;;;2.70;95.20;;;;;;4962805;28;20182;-76
2023/03/16 01:34:32;;;;;;;0.20;0.20;;;2.70;95.30;;;;;;4965533;28;20186;-76
2023/03/16 01:36:59;;;;;;;0.00;0.00;;;2.70;95.10;;;;;;4945743;28;20182;-76
2023/03/16 01:39:25;;;;;;;0.10;0.10;;;2.80;95.20;;;;;;4962864;28;20193;-76
2023/03/16 01:41:51;;;;;;;0.10;0.10;;;2.80;95.60;;;;;;4965233;28;20649;-76
2023/03/16 01:44:31;;;;;;;0.10;0.10;;;2.80;95.50;;;;;;4944457;28;20222;-76
2023/03/16 01:46:57;;;;;;;0.20;0.20;;;2.70;95.70;;;;;;4933207;28;20393;-76
2023/03/16 01:49:35;;;;;;;0.03;0.03;;;2.70;95.90;;;;;;4955115;28;20182;-76
2023/03/16 01:52:09;;;;;;;0.10;0.10;;;2.70;95.60;;;;;;4960820;28;20269;-76
2023/03/16 01:54:55;;;;;;;0.00;0.00;;;2.70;95.70;;;;;;4963533;28;20723;-75
2023/03/16 01:57:24;;;;;;;0.00;0.00;;;2.70;95.40;;;;;;4961971;28;20212;-76
2023/03/16 01:59:57;;;;;;;0.00;0.00;;;2.70;95.30;;;;;;4964985;28;20286;-76
2023/03/16 02:02:27;;;;;;;0.00;0.00;;;2.70;95.30;;;;;;4961520;28;20178;-76
2023/03/16 02:05:01;;;;;;;0.10;0.10;;;2.70;95.20;;;;;;4960420;28;20210;-76
2023/03/16 02:07:31;;;;;;;0.10;0.10;;;2.70;95.00;;;;;;4961434;28;20243;-76
2023/03/16 02:10:01;;;;;;;0.00;0.00;;;2.60;94.90;;;;;;4962245;28;20202;-76
2023/03/16 02:12:28;;;;;;;0.00;0.00;;;2.60;94.70;;;;;;4946446;28;20273;-75
2023/03/16 02:14:54;;;;;;;0.20;0.20;;;2.60;94.70;;;;;;4951680;28;20654;-76
2023/03/16 02:17:23;;;;;;;0.00;0.00;;;2.60;95.00;;;;;;4966113;28;20190;-76
2023/03/16 02:20:08;;;;;;;0.00;0.00;;;2.60;94.90;;;;;;4965855;28;20840;-76
2023/03/16 02:22:43;;;;;;;0.00;0.00;;;2.60;94.90;;;;;;4963938;28;20182;-76
2023/03/16 02:25:11;;;;;;;0.40;0.20;;;2.60;95.00;;;;;;4964252;28;20317;-76
2023/03/16 02:28:07;;;;;;;0.00;0.00;;;2.50;95.20;;;;;;4968083;28;20202;-76
2023/03/16 02:30:33;;;;;;;0.00;0.00;;;2.50;95.30;;;;;;4962271;28;20184;-76
2023/03/16 02:33:00;;;;;;;0.00;0.00;;;2.40;95.50;;;;;;4967050;28;20218;-76
2023/03/16 02:35:26;;;;;;;0.10;0.10;;;2.40;95.80;;;;;;4965847;28;20264;-76
2023/03/16 02:37:51;;;;;;;0.00;0.00;;;2.30;96.00;;;;;;4964386;28;21395;-75
2023/03/16 02:40:23;;;;;;;0.00;0.00;;;2.30;96.10;;;;;;4966333;28;20213;-76
2023/03/16 02:43:09;;;;;;;0.00;0.00;;;2.30;96.40;;;;;;4966684;28;20245;-75
2023/03/16 02:45:41;;;;;;;0.00;0.00;;;2.20;96.50;;;;;;4966633;28;20294;-76
2023/03/16 02:48:17;;;;;;;0.00;0.00;;;2.20;96.70;;;;;;4967088;28;20249;-75
2023/03/16 02:50:48;;;;;;;0.00;0.00;;;2.20;96.90;;;;;;4947834;28;20200;-76
2023/03/16 02:53:15;;;;;;;0.00;0.00;;;2.10;97.10;;;;;;4966491;28;20245;-76
2023/03/16 02:55:40;;;;;;;0.00;0.00;;;2.10;97.50;;;;;;4966423;28;20194;-76
2023/03/16 02:58:06;;;;;;;0.00;0.00;;;2.00;97.80;;;;;;4965975;28;20577;-75
2023/03/16 03:00:33;;;;;;;0.03;0.03;;;2.00;97.70;;;;;;4964173;28;20194;-75
2023/03/16 03:02:59;;;;;;;0.00;0.00;;;2.00;97.80;;;;;;4965364;28;20242;-75
2023/03/16 03:05:24;;;;;;;0.10;0.10;;;2.00;97.90;;;;;;4964658;28;20245;-75
2023/03/16 03:07:50;;;;;;;0.10;0.10;;;2.00;98.10;;;;;;4965247;28;20618;-75
2023/03/16 03:10:16;;;;;;;0.10;0.10;;;2.00;98.50;;;;;;4967279;28;20202;-75
2023/03/16 03:12:42;;;;;;;0.10;0.10;;;2.00;98.50;;;;;;4966857;28;20231;-76
2023/03/16 03:15:09;;;;;;;0.10;0.10;;;2.00;98.50;;;;;;4947228;28;20251;-76
2023/03/16 03:17:36;;;;;;;0.10;0.10;;;2.00;98.50;;;;;;4963271;28;20191;-75
2023/03/16 03:20:06;;;;;;;0.10;0.10;;;2.00;98.30;;;;;;4947620;28;20187;-76
2023/03/16 03:22:32;;;;;;;0.00;0.00;;;2.00;98.50;;;;;;4948883;28;20575;-76
2023/03/16 03:24:58;;;;;;;0.00;0.00;;;2.00;98.30;;;;;;4963441;28;20218;-76
2023/03/16 03:27:24;;;;;;;0.10;0.10;;;1.90;98.20;;;;;;4965491;28;20213;-76
2023/03/16 03:29:49;;;;;;;0.00;0.00;;;2.00;98.20;;;;;;4965322;28;20186;-76
2023/03/16 03:32:15;;;;;;;0.00;0.00;;;1.90;98.40;;;;;;4949167;28;20240;-76
2023/03/16 03:34:41;;;;;;;0.00;0.00;;;1.90;98.50;;;;;;4963861;28;20194;-76
2023/03/16 03:37:07;;;;;;;0.00;0.00;;;1.80;98.30;;;;;;4965042;28;20181;-76
2023/03/16 03:39:32;;;;;;;0.00;0.00;;;1.80;98.30;;;;;;4965185;28;20778;-76
2023/03/16 03:41:58;;;;;;;0.00;0.00;;;1.80;98.20;;;;;;4965765;28;20244;-76
2023/03/16 03:44:25;;;;;;;0.00;0.00;;;1.80;98.20;;;;;;4965096;28;20214;-75
2023/03/16 03:46:51;;;;;;;0.00;0.00;;;1.80;98.00;;;;;;4941164;28;20194;-75
2023/03/16 03:49:17;;;;;;;0.00;0.00;;;1.80;98.00;;;;;;4965626;28;20249;-75
2023/03/16 03:51:43;;;;;;;0.10;0.10;;;1.70;98.20;;;;;;4963781;28;20739;-76
2023/03/16 03:54:09;;;;;;;0.30;0.30;;;1.70;98.40;;;;;;4963427;28;20217;-76
2023/03/16 03:56:35;;;;;;;0.00;0.00;;;1.70;98.50;;;;;;4966207;28;20258;-75
2023/03/16 03:59:01;;;;;;;0.10;0.10;;;1.70;98.00;;;;;;4966436;28;20810;-76
2023/03/16 04:01:26;;;;;;;0.10;0.10;;;1.70;98.20;;;;;;4964620;28;20395;-75
2023/03/16 04:03:52;;;;;;;0.00;0.00;;;1.70;97.90;;;;;;4963560;28;20214;-76
2023/03/16 04:06:18;;;;;;;0.00;0.00;;;1.60;98.00;;;;;;4963716;28;20208;-76
2023/03/16 04:08:43;;;;;;;0.00;0.00;;;1.70;97.90;;;;;;4963095;28;20206;-76
2023/03/16 04:11:10;;;;;;;0.00;0.00;;;1.60;98.00;;;;;;4963194;28;20293;-76
2023/03/16 04:13:36;;;;;;;0.67;0.00;;;1.60;98.20;;;;;;4964189;28;20633;-76
2023/03/16 04:16:02;;;;;;;0.10;0.10;;;1.60;98.20;;;;;;4966086;28;20190;-76
2023/03/16 04:18:28;;;;;;;0.00;0.00;;;1.70;98.00;;;;;;4963641;28;20191;-76
2023/03/16 04:20:54;;;;;;;0.00;0.00;;;1.70;98.20;;;;;;4965548;28;20194;-76
2023/03/16 04:23:21;;;;;;;0.00;0.00;;;1.70;98.20;;;;;;4963912;28;20208;-76
2023/03/16 04:25:47;;;;;;;0.00;0.00;;;1.70;98.20;;;;;;4965471;28;20214;-76
2023/03/16 04:28:16;;;;;;;0.07;0.07;;;1.70;98.30;;;;;;4965355;28;20182;-76
2023/03/16 04:30:42;;;;;;;0.00;0.00;;;1.70;97.90;;;;;;4966256;28;20627;-76
2023/03/16 04:33:08;;;;;;;0.00;0.00;;;1.80;97.90;;;;;;4963186;28;20191;-76
2023/03/16 04:35:34;;;;;;;0.20;0.20;;;1.70;97.80;;;;;;4959990;28;20210;-76
2023/03/16 04:38:01;;;;;;;0.13;0.13;;;1.70;97.90;;;;;;4965895;28;20186;-76
2023/03/16 04:40:26;;;;;;;0.00;0.00;;;1.70;98.00;;;;;;4963843;28;20206;-76
2023/03/16 04:42:52;;;;;;;0.37;0.10;;;1.70;98.30;;;;;;4963558;28;20218;-76
2023/03/16 04:45:18;;;;;;;0.00;0.00;;;1.70;98.30;;;;;;4961337;28;20742;-76
2023/03/16 04:47:43;;;;;;;0.00;0.00;;;1.70;98.20;;;;;;4962224;28;20193;-77
2023/03/16 04:50:10;;;;;;;0.57;0.10;;;1.70;98.30;;;;;;4962223;28;20192;-76
2023/03/16 04:52:37;;;;;;;0.00;0.00;;;1.70;98.40;;;;;;4960140;28;20189;-76
2023/03/16 04:55:02;;;;;;;0.03;0.03;;;1.70;98.00;;;;;;4946373;28;20193;-76
2023/03/16 04:57:29;;;;;;;0.00;0.00;;;1.60;98.30;;;;;;4964063;28;20182;-76
2023/03/16 04:59:55;;;;;;;0.00;0.00;;;1.60;98.00;;;;;;4947288;28;20265;-76
2023/03/16 05:02:21;;;;;;;0.00;0.00;;;1.70;97.80;;;;;;4960400;28;20186;-77
2023/03/16 05:04:47;;;;;;;0.10;0.10;;;1.70;97.70;;;;;;4948056;28;20238;-76
2023/03/16 05:07:13;;;;;;;0.07;0.07;;;1.60;97.70;;;;;;4963725;28;20590;-77
2023/03/16 05:09:38;;;;;;;0.10;0.10;;;1.60;98.10;;;;;;4965566;28;20193;-76
2023/03/16 05:12:04;;;;;;;0.10;0.10;;;1.60;97.90;;;;;;4964400;28;20189;-77
2023/03/16 05:14:30;;;;;;;0.00;0.00;;;1.70;98.00;;;;;;4964328;28;20301;-76
2023/03/16 05:16:55;;;;;;;0.00;0.00;;;1.70;97.80;;;;;;4959224;28;20230;-79
2023/03/16 05:19:21;;;;;;;0.07;0.07;;;1.70;97.80;;;;;;4946031;28;20575;-80
2023/03/16 05:21:48;;;;;;;0.33;0.10;;;1.70;97.30;;;;;;4964608;28;20193;-78
2023/03/16 05:24:13;;;;;;;0.10;0.03;;;1.70;97.30;;;;;;4947089;28;20212;-79
2023/03/16 05:26:39;;;;;;;0.10;0.10;;;1.70;97.00;;;;;;4965060;28;20178;-79
2023/03/16 05:29:05;;;;;;;0.10;0.10;;;1.70;97.10;;;;;;4963527;28;20198;-80
2023/03/16 05:31:35;;;;;;;0.00;0.00;;;1.70;97.10;;;;;;4965485;28;20178;-78
2023/03/16 05:34:01;;;;;;;0.20;0.20;;;1.70;97.20;;;;;;4959172;28;20205;-76
2023/03/16 05:36:27;;;;;;;0.10;0.10;;;1.80;97.10;;;;;;4964199;28;20960;-75
2023/03/16 05:38:52;;;;;;;0.10;0.10;;;1.80;97.00;;;;;;4965086;28;20182;-77
2023/03/16 05:41:20;;;;;;;0.00;0.00;;;1.80;97.20;;;;;;4958999;28;20627;-74
2023/03/16 05:43:46;;;;;;;0.10;0.10;;;1.80;96.90;;;;;;4962024;28;20581;-74
2023/03/16 05:46:12;;;;;;;0.10;0.10;;;1.80;96.90;;;;;;4963083;28;20194;-74
2023/03/16 05:48:38;;;;;;;0.00;0.00;;;1.80;97.00;;;;;;4967920;28;20257;-78
2023/03/16 05:51:04;;;;;;;0.10;0.10;;;1.80;97.30;;;;;;4968848;28;20257;-80
2023/03/16 05:53:34;;;;;;;0.10;0.10;;;1.80;97.40;;;;;;4950113;28;20186;-76
2023/03/16 05:56:00;;;;;;;0.17;0.17;;;1.90;97.10;;;;;;4967252;28;20194;-76
2023/03/16 05:58:26;;;;;;;0.00;0.00;;;1.80;97.00;;;;;;4966254;28;20186;-78
2023/03/16 06:00:54;;;;;;;0.20;0.20;;;1.90;97.00;;;;;;4966646;28;20214;-79
2023/03/16 06:03:21;;;;;;;0.10;0.10;;;1.90;97.00;;;;;;4968917;28;20182;-76
2023/03/16 06:05:47;;;;;;;0.10;0.10;;;1.80;97.00;;;;;;4969092;28;20218;-76
2023/03/16 06:08:14;;;;;;;0.10;0.10;;;1.80;97.10;;;;;;4941717;28;20179;-76
2023/03/16 06:10:39;;;;;;;0.10;0.10;;;1.70;96.70;;;;;;4957027;28;20198;-75
2023/03/16 06:13:05;;;;;;;0.10;0.10;;;1.70;97.10;;;;;;4969154;28;20178;-75
2023/03/16 06:15:31;;;;;;;0.07;0.07;;;1.70;97.00;;;;;;4967959;28;20198;-76
2023/03/16 06:17:56;;;;;;;0.10;0.10;;;1.70;97.20;;;;;;4968088;28;20196;-76
2023/03/16 06:20:22;;;;;;;0.30;0.30;;;1.80;97.10;;;;;;4967977;28;20556;-75
2023/03/16 06:22:48;;;;;;;0.10;0.10;;;1.80;96.90;;;;;;4965947;28;20182;-76
2023/03/16 06:25:14;;;;;;;0.10;0.10;;;1.80;96.90;;;;;;4968528;28;20218;-76
2023/03/16 06:27:41;;;;;;;0.10;0.10;;;1.90;97.00;;;;;;4967937;28;20247;-76
2023/03/16 06:30:08;;;;;;;0.40;0.20;;;1.90;96.50;;;;;;4967455;28;20246;-76
2023/03/16 06:32:36;;;;;;;0.10;0.10;;;1.90;96.00;;;;;;4968912;28;20659;-76
2023/03/16 06:35:03;;;;;;;0.10;0.10;;;2.00;95.70;;;;;;4967303;28;20182;-75
2023/03/16 06:37:29;;;;;;;0.20;0.20;;;2.00;95.80;;;;;;4966681;28;20182;-76
2023/03/16 06:39:55;;;;;;;0.10;0.10;;;2.00;95.80;;;;;;4948772;28;20331;-76
2023/03/16 06:42:22;;;;;;;0.07;0.07;;;2.00;95.70;;;;;;4965672;28;21434;-75
2023/03/16 06:44:48;;;;;;;0.10;0.10;;;2.10;95.90;;;;;;4966302;28;20237;-78
2023/03/16 06:47:14;;;;;;;2.77;0.20;;;2.10;95.40;;;;;;4967655;28;20194;-75
2023/03/16 06:49:39;;;;;;;0.10;0.10;;;2.10;95.30;;;;;;4968176;28;20193;-76
2023/03/16 06:52:05;;;;;;;0.10;0.10;;;2.00;94.60;;;;;;4958489;28;20189;-76
2023/03/16 06:54:33;;;;;;;0.10;0.10;;;2.00;94.80;;;;;;4959379;28;20211;-75
2023/03/16 06:57:00;;;;;;;0.00;0.00;;;2.00;94.70;;;;;;4949639;28;20185;-76
2023/03/16 06:59:25;;;;;;;0.00;0.00;;;2.00;94.70;;;;;;4947098;28;20205;-75
2023/03/16 07:01:51;;;;;;;0.10;0.10;;;2.10;94.80;;;;;;4967395;28;20182;-75
2023/03/16 07:04:17;;;;;;;1.23;0.13;;;2.10;94.40;;;;;;4963627;28;20225;-75
2023/03/16 07:06:42;;;;;;;0.17;0.17;;;2.10;94.50;;;;;;4967107;28;20237;-75
2023/03/16 07:09:08;;;;;;;1.23;0.13;;;2.10;94.50;;;;;;4964199;28;20189;-76
2023/03/16 07:11:37;;;;;;;0.50;0.30;;;2.10;94.50;;;;;;4945452;28;20435;-75
2023/03/16 07:14:03;;;;;;;3.87;0.30;;;2.10;94.30;;;;;;4962451;28;20193;-75
2023/03/16 07:16:29;;;;;;;0.00;0.00;;;2.20;94.90;;;;;;4964471;28;20195;-75
2023/03/16 07:18:55;;;;;;;0.10;0.10;;;2.20;94.90;;;;;;4967403;28;20178;-74
2023/03/16 07:21:20;;;;;;;0.10;0.10;;;2.20;94.70;;;;;;4966970;28;20186;-74
2023/03/16 07:23:46;;;;;;;0.00;0.00;;;2.20;95.00;;;;;;4966442;28;20221;-75
2023/03/16 07:26:12;;;;;;;0.10;0.10;;;2.20;95.10;;;;;;4966870;28;20845;-75
2023/03/16 07:28:39;;;;;;;0.10;0.10;;;2.30;94.70;;;;;;4965828;28;20174;-74
2023/03/16 07:31:05;;;;;;;0.20;0.20;;;2.20;94.60;;;;;;4964489;28;20746;-76
2023/03/16 07:33:33;;;;;;;0.47;0.10;;;2.20;94.90;;;;;;4964950;28;20320;-73
2023/03/16 07:35:59;;;;;;;0.10;0.10;;;2.10;94.90;;;;;;4948410;28;20315;-74
2023/03/16 07:38:25;;;;;;;0.10;0.10;;;2.20;94.90;;;;;;4949949;28;20187;-74
2023/03/16 07:40:53;;;;;;;0.07;0.07;;;2.20;95.10;;;;;;4949162;28;20192;-75
2023/03/16 07:43:19;;;;;;;0.10;0.10;;;2.30;95.20;;;;;;4949698;28;20187;-75
2023/03/16 07:45:48;;;;;;;0.10;0.10;;;2.40;94.70;;;;;;4947646;28;20225;-75
2023/03/16 07:48:14;;;;;;;0.20;0.20;;;2.40;94.00;;;;;;4964848;28;20692;-74
2023/03/16 07:50:40;;;;;;;0.30;0.30;;;2.50;93.70;;;;;;4949143;28;20187;-74
2023/03/16 07:53:06;;;;;;;0.10;0.10;;;2.50;93.90;;;;;;4966427;28;20236;-75
2023/03/16 07:55:35;;;;;;;0.10;0.10;;;2.60;94.20;;;;;;4965420;28;20655;-74
2023/03/16 07:58:01;;;;;;;0.00;0.00;;;2.70;93.90;;;;;;4966337;28;20583;-74
2023/03/16 08:00:27;;;;;;;0.07;0.07;;;2.70;93.30;;;;;;4964659;28;20710;-74
2023/03/16 08:02:55;;;;;;;0.20;0.20;;;2.70;93.10;;;;;;4963286;28;20190;-74
2023/03/16 08:05:20;;;;;;;0.00;0.00;;;2.70;93.00;;;;;;4962989;28;20225;-74
2023/03/16 08:07:46;;;;;;;0.10;0.10;;;2.80;93.20;;;;;;4964997;28;20186;-75
2023/03/16 08:10:12;;;;;;;0.10;0.10;;;2.90;93.10;;;;;;4963177;28;20802;-75
2023/03/16 08:12:37;;;;;;;0.10;0.10;;;2.90;92.90;;;;;;4946902;28;20730;-75
2023/03/16 08:15:04;;;;;;;0.10;0.10;;;2.90;92.30;;;;;;4964893;28;20593;-79
2023/03/16 08:17:30;;;;;;;0.10;0.10;;;2.90;92.30;;;;;;4964933;28;20179;-76
2023/03/16 08:19:56;;;;;;;1.50;0.20;;;3.00;92.70;;;;;;4963759;28;20194;-76
2023/03/16 08:22:22;;;;;;;0.10;0.10;;;3.00;92.70;;;;;;4947537;28;20183;-77
2023/03/16 08:24:49;;;;;;;0.20;0.20;;;3.10;92.60;;;;;;4965917;28;20305;-77
2023/03/16 08:27:15;;;;;;;0.13;0.13;;;3.10;93.10;;;;;;4964565;28;20191;-77
2023/03/16 08:29:44;;;;;;;0.10;0.10;;;3.20;92.80;;;;;;4965958;28;20191;-76
2023/03/16 08:32:10;;;;;;;0.10;0.10;;;3.30;92.80;;;;;;4964996;28;20175;-74
2023/03/16 08:34:36;;;;;;;0.10;0.10;;;3.30;91.10;;;;;;4965625;28;20188;-74
2023/03/16 08:37:01;;;;;;;0.10;0.10;;;3.30;91.40;;;;;;4964629;28;21028;-73
2023/03/16 08:39:28;;;;;;;0.10;0.10;;;3.30;91.40;;;;;;4964112;28;20241;-74
2023/03/16 08:41:55;;;;;;;0.00;0.00;;;3.30;91.10;;;;;;4965607;28;20183;-75
2023/03/16 08:44:24;;;;;;;0.03;0.03;;;3.30;90.90;;;;;;4962121;28;20337;-74
2023/03/16 08:46:50;;;;;;;0.10;0.10;;;3.40;90.90;;;;;;4965426;28;20191;-74
2023/03/16 08:49:16;;;;;;;0.10;0.10;;;3.40;90.60;;;;;;4963932;28;20183;-74
2023/03/16 08:51:42;;;;;;;0.10;0.10;;;3.50;90.60;;;;;;4962853;28;20190;-74
2023/03/16 08:54:07;;;;;;;0.20;0.20;;;3.50;90.50;;;;;;4943960;28;20234;-74
2023/03/16 08:56:33;;;;;;;0.03;0.03;;;3.50;90.20;;;;;;4964675;28;20240;-74
2023/03/16 08:58:58;;;;;;;0.10;0.10;;;3.50;89.60;;;;;;4964294;28;20188;-75
2023/03/16 09:01:25;;;;;;;0.10;0.10;;;3.50;88.90;;;;;;4946459;28;20639;-76
2023/03/16 09:03:51;;;;;;;0.13;0.13;;;3.50;89.00;;;;;;4964129;28;20273;-76
2023/03/16 09:06:17;;;;;;;0.10;0.10;;;3.50;89.50;;;;;;4945879;28;20241;-76
2023/03/16 09:08:46;;;;;;;0.00;0.00;;;3.50;89.20;;;;;;4962827;28;20182;-75
2023/03/16 09:11:15;;;;;;;0.20;0.20;;;3.50;89.10;;;;;;4943315;28;20273;-76
2023/03/16 09:13:41;;;;;;;0.30;0.10;;;3.50;88.90;;;;;;4964091;28;20595;-76
2023/03/16 09:16:08;;;;;;;0.10;0.10;;;3.50;89.00;;;;;;4963810;28;21602;-74
2023/03/16 09:18:35;;;;;;;0.10;0.10;;;3.50;89.00;;;;;;4962960;28;20183;-76
2023/03/16 09:21:05;;;;;;;0.27;0.27;;;3.60;89.40;;;;;;4961237;28;20182;-77
2023/03/16 09:23:32;;;;;;;0.70;0.20;;;3.70;89.30;;;;;;4962145;28;20182;-75
2023/03/16 09:25:59;;;;;;;0.43;0.43;;;3.70;89.10;;;;;;4962025;28;20237;-75
2023/03/16 09:28:27;;;;;;;0.77;0.30;;;3.70;89.20;;;;;;4962040;28;20190;-75
2023/03/16 09:30:56;;;;;;;0.43;0.33;;;3.70;88.80;;;;;;4961767;28;20213;-73
2023/03/16 09:33:24;;;;;;;1.53;0.30;;;3.70;88.50;;;;;;4963092;28;20265;-74
2023/03/16 09:35:51;;;;;;;0.17;0.17;;;3.70;88.80;;;;;;4963358;28;20209;-74
2023/03/16 09:38:17;;;;;;;0.20;0.20;;;3.70;88.50;;;;;;4964091;28;20237;-75
2023/03/16 09:40:45;;;;;;;0.33;0.30;;;3.80;88.60;;;;;;4961398;28;20949;-75
2023/03/16 09:43:19;;;;;;;0.20;0.20;;;3.80;88.20;;;;;;4961235;28;20187;-76
2023/03/16 09:45:58;;;;;;;0.47;0.10;;;3.80;87.60;;;;;;4986225;28;20248;-75
2023/03/16 09:48:26;;;;;;;0.27;0.27;;;3.80;86.70;;;;;;4962171;28;20193;-75
2023/03/16 09:50:54;;;;;;;0.10;0.10;;;3.80;87.10;;;;;;4964500;28;20197;-75
2023/03/16 09:53:25;;;;;;;0.20;0.20;;;3.70;86.80;;;;;;4965239;28;20189;-75
2023/03/16 09:56:09;;;;;;;0.20;0.20;;;3.70;87.40;;;;;;4963106;28;20698;-75
2023/03/16 09:58:35;;;;;;;0.27;0.27;;;3.70;87.90;;;;;;4964954;28;20183;-75
2023/03/16 10:01:29;;;;;;;0.30;0.30;;;3.60;88.00;;;;;;4964708;28;20261;-75
2023/03/16 10:04:08;;;;;;;0.20;0.20;;;3.70;88.40;;;;;;4964820;28;20186;-75
2023/03/16 10:06:44;;;;;;;0.33;0.33;;;3.70;88.70;;;;;;4953917;28;20205;-75
2023/03/16 10:09:32;;;;;;;0.10;0.10;;;3.70;88.60;;;;;;4962231;28;20198;-75
2023/03/16 10:12:01;;;;;;;1.37;0.40;;;3.70;88.40;;;;;;4962788;28;20194;-76
2023/03/16 10:14:39;;;;;;;0.77;0.30;;;3.70;88.30;;;;;;4963666;28;20186;-75
2023/03/16 10:17:17;;;;;;;0.20;0.20;;;3.70;88.10;;;;;;4962074;28;20270;-76
2023/03/16 10:19:56;;;;;;;0.27;0.27;;;3.80;87.80;;;;;;4964429;28;20269;-76
2023/03/16 10:22:25;;;;;;;0.20;0.20;;;3.80;87.30;;;;;;4959602;28;20672;-75
2023/03/16 10:25:18;;;;;;;0.20;0.20;;;3.70;87.00;;;;;;4960644;28;20337;-75
2023/03/16 10:27:44;;;;;;;0.20;0.20;;;3.80;87.20;;;;;;4962518;28;20194;-76
2023/03/16 10:30:18;;;;;;;2.10;0.30;;;3.80;87.10;;;;;;4945066;28;20247;-76
2023/03/16 10:32:45;;;;;;;0.20;0.20;;;3.70;87.10;;;;;;4961253;28;20261;-76
2023/03/16 10:35:47;;;;;;;0.20;0.20;;;3.70;87.40;;;;;;4967663;28;20301;-76
2023/03/16 10:38:47;;;;;;;0.20;0.20;;;3.80;87.60;;;;;;4964440;28;20181;-75
2023/03/16 10:41:21;;;;;;;0.20;0.20;;;3.80;87.60;;;;;;4887398;29;20674;-76
2023/03/16 10:43:50;;;;;;;0.63;0.30;;;3.80;87.60;;;;;;4887521;29;20204;-75
2023/03/16 10:46:16;;;;;;;0.50;0.50;;;3.80;87.80;;;;;;4887920;29;20239;-75
2023/03/16 10:48:51;;;;;;;0.30;0.30;;;3.80;87.70;;;;;;4872605;29;20618;-75
2023/03/16 10:51:24;;;;;;;3.30;0.57;;;3.80;87.40;;;;;;4888171;29;20686;-76
2023/03/16 10:53:50;;;;;;;0.10;0.10;;;3.90;87.60;;;;;;4871619;29;20204;-75
2023/03/16 10:56:22;;;;;;;0.20;0.20;;;3.90;87.40;;;;;;4886245;29;20292;-75
2023/03/16 10:58:48;;;;;;;0.20;0.20;;;4.00;86.80;;;;;;4886945;29;20698;-76
2023/03/16 11:01:33;;;;;;;0.20;0.20;;;4.00;86.30;;;;;;4887506;29;20280;-76
2023/03/16 11:03:59;;;;;;;0.37;0.30;;;4.00;85.90;;;;;;4887051;29;20204;-76
2023/03/16 11:06:29;;;;;;;0.40;0.40;;;4.10;85.90;;;;;;4889829;29;20193;-75
2023/03/16 11:09:22;;;;;;;0.37;0.37;;;4.20;86.00;;;;;;4887680;29;20185;-75
2023/03/16 11:11:49;;;;;;;0.40;0.40;;;4.20;85.10;;;;;;4887242;29;20229;-78
2023/03/16 11:14:19;;;;;;;0.30;0.30;;;4.20;84.80;;;;;;4888449;29;20586;-79
2023/03/16 11:16:50;;;;;;;0.20;0.20;;;4.20;85.00;;;;;;4925425;28;20274;-79
2023/03/16 11:19:26;;;;;;;0.20;0.20;;;4.20;85.10;;;;;;4965789;28;20222;-79
2023/03/16 11:22:14;;;;;;;0.40;0.40;;;4.30;85.20;;;;;;4948147;28;20186;-78
2023/03/16 11:25:03;;;;;;;0.30;0.30;;;4.30;84.80;;;;;;4888780;29;20229;-78
2023/03/16 11:27:28;;;;;;;0.20;0.20;;;4.20;84.30;;;;;;4888964;29;20185;-76
2023/03/16 11:30:15;;;;;;;0.23;0.23;;;4.20;84.40;;;;;;4887127;29;20204;-76
2023/03/16 11:32:47;;;;;;;0.27;0.27;;;4.20;84.10;;;;;;4896450;29;20209;-80
2023/03/16 11:35:18;;;;;;;0.40;0.40;;;4.20;84.10;;;;;;4905693;29;20259;-77
2023/03/16 11:38:07;;;;;;;0.20;0.20;;;4.20;84.10;;;;;;4886398;29;20197;-75
2023/03/16 11:40:39;;;;;;;0.20;0.20;;;4.20;84.20;;;;;;4903156;29;20201;-77
2023/03/16 11:43:19;;;;;;;0.23;0.23;;;4.20;84.40;;;;;;4901279;29;20197;-76
2023/03/16 11:46:09;;;;;;;0.30;0.30;;;4.30;84.20;;;;;;4902797;29;22183;-75
2023/03/16 11:49:07;;;;;;;0.37;0.37;;;4.20;84.00;;;;;;4902169;29;20573;-76
2023/03/16 11:51:54;;;;;;;0.37;0.37;;;4.20;84.10;;;;;;4851252;29;20711;-77
2023/03/16 11:54:42;;;;;;;0.37;0.37;;;4.30;84.00;;;;;;4842488;29;20206;-76
2023/03/16 11:57:45;;;;;;;0.27;0.27;;;4.30;83.80;;;;;;4850986;29;20211;-76
2023/03/16 12:00:45;;;;;;;0.20;0.20;;;4.30;83.80;;;;;;4858474;29;20190;-77
2023/03/16 12:03:29;;;;;;;0.20;0.20;;;4.40;83.90;;;;;;4869851;29;20253;-77
2023/03/16 12:06:45;;;;;;;0.23;0.23;;;4.30;83.70;;;;;;4875014;29;20238;-77
2023/03/16 12:09:50;;;;;;;0.50;0.50;;;4.30;83.50;;;;;;4813737;29;20200;-77
2023/03/16 12:12:22;;;;;;;0.20;0.20;;;4.20;83.60;;;;;;4811488;29;20194;-77
2023/03/16 12:15:13;;;;;;;0.30;0.30;;;4.10;84.00;;;;;;4806446;29;20204;-76
2023/03/16 12:17:41;;;;;;;0.40;0.40;;;4.10;84.10;;;;;;4807266;29;20201;-77
2023/03/16 12:20:17;;;;;;;0.40;0.40;;;4.10;84.20;;;;;;4809069;29;20212;-76
2023/03/16 12:22:45;;;;;;;1.30;0.40;;;4.00;84.20;;;;;;4808615;29;20196;-77
2023/03/16 12:25:20;;;;;;;1.43;0.40;;;3.90;84.00;;;;;;4801837;29;20307;-76
2023/03/16 12:27:51;;;;;;;0.20;0.20;;;3.90;84.30;;;;;;4822283;29;20254;-77
2023/03/16 12:30:35;;;;;;;0.40;0.40;;;3.90;84.60;;;;;;4862311;29;20242;-76
2023/03/16 12:33:28;;;;;;;0.50;0.50;;;3.90;84.70;;;;;;4863069;29;20665;-76
2023/03/16 12:36:18;;;;;;;0.40;0.40;;;3.90;84.70;;;;;;4862078;29;20205;-77
2023/03/16 12:38:52;;;;;;;0.60;0.60;;;3.90;84.60;;;;;;4848668;29;20301;-75
2023/03/16 12:41:27;;;;;;;0.40;0.40;;;3.90;84.90;;;;;;4963127;28;20185;-75
2023/03/16 12:44:14;;;;;;;0.80;0.40;;;3.90;85.30;;;;;;4965328;28;20592;-76
2023/03/16 12:47:02;;;;;;;0.50;0.50;;;3.90;85.40;;;;;;4977772;28;20254;-76
2023/03/16 12:49:31;;;;;;;0.30;0.30;;;3.80;85.40;;;;;;4975448;28;20186;-76
2023/03/16 12:52:00;;;;;;;0.60;0.60;;;3.80;85.60;;;;;;4959310;28;20277;-76
2023/03/16 12:54:27;;;;;;;1.23;0.87;;;3.70;86.10;;;;;;4974201;28;20301;-76
2023/03/16 12:57:03;;;;;;;0.50;0.50;;;3.70;86.70;;;;;;4973964;28;20190;-76
2023/03/16 12:59:51;;;;;;;0.27;0.27;;;3.60;87.30;;;;;;4976267;28;20190;-75
2023/03/16 13:02:23;;;;;;;0.40;0.40;;;3.50;87.80;;;;;;4974412;28;20677;-75
2023/03/16 13:04:58;;;;;;;0.40;0.40;;;3.50;88.10;;;;;;4958283;28;20221;-76
2023/03/16 13:07:26;;;;;;;0.57;0.40;;;3.40;89.10;;;;;;4971477;28;20187;-76
2023/03/16 13:10:06;;;;;;;0.43;0.43;;;3.40;89.40;;;;;;4974070;28;20248;-76
2023/03/16 13:12:35;;;;;;;0.37;0.37;;;3.50;89.40;;;;;;4992144;28;20185;-75